createdAt,value
2019-02-22T00:00:48.254Z,93.21
2019-02-22T00:03:18.566Z,93.39
2019-02-22T00:05:48.527Z,93.63
2019-02-22T00:08:18.665Z,93.78
2019-02-22T00:10:48.822Z,93.90
2019-02-22T00:13:18.860Z,93.99
2019-02-22T00:15:48.894Z,94.05
2019-02-22T00:18:19.400Z,94.11
2019-02-22T00:20:49.304Z,94.21
2019-02-22T00:23:19.311Z,94.28
2019-02-22T00:25:49.254Z,94.31
2019-02-22T00:28:19.478Z,94.36
2019-02-22T00:30:49.745Z,94.45
2019-02-22T00:33:19.783Z,94.47
2019-02-22T00:35:53.467Z,94.50
2019-02-22T00:38:23.419Z,94.51
2019-02-22T00:40:53.367Z,94.53
2019-02-22T00:43:24.418Z,94.51
2019-02-22T00:45:54.635Z,94.44
2019-02-22T00:48:24.879Z,94.38
2019-02-22T00:50:54.756Z,94.40
2019-02-22T00:53:24.789Z,94.42
2019-02-22T00:55:54.760Z,94.45
2019-02-22T00:58:24.815Z,94.45
2019-02-22T01:00:54.770Z,94.47
2019-02-22T01:03:24.804Z,94.54
2019-02-22T01:05:54.754Z,94.62
2019-02-22T01:08:24.738Z,94.62
2019-02-22T01:10:54.961Z,94.76
2019-02-22T01:13:25.088Z,94.98
2019-02-22T01:15:55.174Z,95.14
2019-02-22T01:18:26.188Z,95.32
2019-02-22T01:20:56.072Z,95.50
2019-02-22T01:23:26.023Z,95.61
2019-02-22T01:25:56.005Z,95.75
2019-02-22T01:28:25.966Z,95.86
2019-02-22T01:30:55.950Z,95.96
2019-02-22T01:33:25.909Z,95.95
2019-02-22T01:35:55.794Z,96.00
2019-02-22T01:38:25.672Z,96.11
2019-02-22T01:40:55.701Z,96.17
2019-02-22T01:43:25.489Z,96.23
2019-02-22T01:45:55.805Z,96.24
2019-02-22T01:48:25.683Z,96.30
2019-02-22T01:50:55.644Z,96.34
2019-02-22T01:53:25.538Z,96.42
2019-02-22T01:55:56.717Z,96.45
2019-02-22T01:58:26.656Z,96.49
2019-02-22T02:00:57.132Z,96.49
2019-02-22T02:03:27.084Z,96.50
2019-02-22T02:05:57.042Z,96.58
2019-02-22T02:08:27.583Z,96.69
2019-02-22T02:10:57.523Z,96.76
2019-02-22T02:13:27.607Z,96.78
2019-02-22T02:15:57.478Z,96.82
2019-02-22T02:18:27.449Z,96.85
2019-02-22T02:20:57.725Z,96.92
2019-02-22T02:23:28.909Z,96.90
2019-02-22T02:25:58.858Z,96.89
2019-02-22T02:28:28.827Z,96.90
2019-02-22T02:30:58.707Z,96.92
2019-02-22T02:33:28.709Z,96.96
2019-02-22T02:35:58.664Z,97.00
2019-02-22T02:38:28.645Z,97.01
2019-02-22T02:41:07.075Z,97.06
2019-02-22T02:43:30.066Z,97.09
2019-02-22T02:46:00.020Z,97.05
2019-02-22T02:48:30.311Z,97.05
2019-02-22T02:51:00.191Z,97.09
2019-02-22T02:53:30.157Z,97.10
2019-02-22T02:56:00.036Z,97.04
2019-02-22T02:58:30.278Z,97.09
2019-02-22T03:01:00.262Z,97.07
2019-02-22T03:03:30.227Z,97.09
2019-02-22T03:06:28.714Z,97.08
2019-02-22T03:08:58.680Z,97.10
2019-02-22T03:11:28.642Z,97.14
2019-02-22T03:13:58.530Z,97.15
2019-02-22T03:16:28.506Z,97.17
2019-02-22T03:18:58.701Z,97.21
2019-02-22T03:21:28.531Z,97.18
2019-02-22T03:23:58.766Z,97.22
2019-02-22T03:26:29.342Z,97.29
2019-02-22T03:28:59.344Z,97.30
2019-02-22T03:31:29.690Z,97.31
2019-02-22T03:34:00.001Z,97.33
2019-02-22T03:36:29.959Z,97.38
2019-02-22T03:38:59.844Z,97.37
2019-02-22T03:41:33.354Z,97.35
2019-02-22T03:44:01.442Z,97.35
2019-02-22T03:46:31.430Z,97.32
2019-02-22T03:49:01.503Z,97.34
2019-02-22T03:51:31.403Z,97.37
2019-02-22T03:54:03.066Z,97.39
2019-02-22T03:56:33.133Z,97.38
2019-02-22T03:59:03.416Z,97.40
2019-02-22T04:01:33.368Z,97.44
2019-02-22T04:04:03.761Z,97.50
2019-02-22T04:06:33.723Z,97.52
2019-02-22T04:09:05.128Z,97.51
2019-02-22T04:11:44.976Z,97.48
2019-02-22T04:14:08.870Z,97.42
2019-02-22T04:16:38.854Z,97.41
2019-02-22T04:19:08.895Z,97.36
2019-02-22T04:21:39.226Z,97.33
2019-02-22T04:24:09.109Z,97.36
2019-02-22T04:26:38.944Z,97.33
2019-02-22T04:29:08.924Z,97.39
2019-02-22T04:31:39.112Z,97.42
2019-02-22T04:34:09.344Z,97.43
2019-02-22T04:36:39.239Z,97.45
2019-02-22T04:39:09.185Z,97.50
2019-02-22T04:41:39.154Z,97.51
2019-02-22T04:44:09.030Z,97.55
2019-02-22T04:46:38.993Z,97.55
2019-02-22T04:49:09.175Z,97.56
2019-02-22T04:51:39.096Z,97.58
2019-02-22T04:54:09.385Z,97.56
2019-02-22T04:56:39.340Z,97.50
2019-02-22T04:59:09.296Z,97.52
2019-02-22T05:01:39.287Z,97.58
2019-02-22T05:04:09.598Z,97.58
2019-02-22T05:06:39.559Z,97.53
2019-02-22T05:09:09.761Z,97.46
2019-02-22T05:11:39.969Z,97.47
2019-02-22T05:14:10.568Z,97.49
2019-02-22T05:16:40.906Z,97.51
2019-02-22T05:19:10.789Z,97.53
2019-02-22T05:21:40.650Z,97.57
2019-02-22T05:24:11.849Z,97.57
2019-02-22T05:26:42.017Z,97.60
2019-02-22T05:29:11.969Z,97.63
2019-02-22T05:31:42.159Z,97.62
2019-02-22T05:34:12.115Z,97.58
2019-02-22T05:36:44.119Z,97.62
2019-02-22T05:39:18.997Z,97.62
2019-02-22T05:41:45.720Z,97.62
2019-02-22T05:44:15.605Z,97.60
2019-02-22T05:46:45.557Z,97.59
2019-02-22T05:49:15.521Z,97.60
2019-02-22T05:51:45.758Z,97.62
2019-02-22T05:54:15.776Z,97.63
2019-02-22T05:56:46.637Z,97.65
2019-02-22T05:59:16.516Z,97.62
2019-02-22T06:01:46.536Z,97.62
2019-02-22T06:04:17.668Z,97.61
2019-02-22T06:06:47.889Z,97.67
2019-02-22T06:09:18.192Z,97.77
2019-02-22T06:11:48.401Z,97.77
2019-02-22T06:14:18.465Z,97.73
2019-02-22T06:16:48.657Z,97.78
2019-02-22T06:19:18.496Z,97.79
2019-02-22T06:21:48.778Z,97.79
2019-02-22T06:24:18.754Z,97.80
2019-02-22T06:26:48.980Z,97.82
2019-02-22T06:29:18.930Z,97.81
2019-02-22T06:31:48.761Z,97.79
2019-02-22T06:34:18.641Z,97.75
2019-02-22T06:37:00.764Z,97.77
2019-02-22T06:39:20.107Z,97.74
2019-02-22T06:41:50.305Z,97.75
2019-02-22T06:44:20.460Z,97.77
2019-02-22T06:46:50.715Z,97.81
2019-02-22T06:49:20.747Z,97.81
2019-02-22T06:51:50.979Z,97.80
2019-02-22T06:54:21.280Z,97.78
2019-02-22T06:56:51.249Z,97.81
2019-02-22T06:59:21.580Z,97.83
2019-02-22T07:01:51.539Z,97.86
2019-02-22T07:04:21.418Z,97.86
2019-02-22T07:06:52.465Z,97.87
2019-02-22T07:09:22.694Z,97.85
2019-02-22T07:12:06.242Z,97.84
2019-02-22T07:14:36.532Z,97.82
2019-02-22T07:17:06.494Z,97.78
2019-02-22T07:19:37.455Z,97.74
2019-02-22T07:22:07.332Z,97.77
2019-02-22T07:24:37.485Z,97.79
2019-02-22T07:27:07.488Z,97.79
2019-02-22T07:29:37.647Z,97.78
2019-02-22T07:32:08.052Z,97.78
2019-02-22T07:34:37.946Z,97.77
2019-02-22T07:37:08.976Z,97.73
2019-02-22T07:39:39.119Z,97.69
2019-02-22T07:42:09.008Z,97.64
2019-02-22T07:44:38.963Z,97.67
2019-02-22T07:47:08.851Z,97.74
2019-02-22T07:49:39.005Z,97.75
2019-02-22T07:52:08.979Z,97.79
2019-02-22T07:54:39.223Z,97.76
2019-02-22T07:57:09.115Z,97.77
2019-02-22T07:59:39.070Z,97.76
2019-02-22T08:02:09.041Z,97.77
2019-02-22T08:04:38.870Z,97.77
2019-02-22T08:07:08.672Z,97.83
2019-02-22T08:09:38.560Z,97.83
2019-02-22T08:12:08.538Z,97.87
2019-02-22T08:14:38.765Z,97.88
2019-02-22T08:17:08.646Z,97.95
2019-02-22T08:19:39.197Z,97.95
2019-02-22T08:22:09.084Z,97.93
2019-02-22T08:24:38.971Z,97.90
2019-02-22T08:27:09.914Z,97.86
2019-02-22T08:29:40.071Z,97.83
2019-02-22T08:32:09.992Z,97.84
2019-02-22T08:34:40.028Z,97.76
2019-02-22T08:37:09.983Z,97.71
2019-02-22T08:39:40.029Z,97.66
2019-02-22T08:42:09.992Z,97.63
2019-02-22T08:44:40.178Z,97.56
2019-02-22T08:47:10.129Z,97.42
2019-02-22T08:49:40.356Z,97.32
2019-02-22T08:52:10.591Z,97.32
2019-02-22T08:54:46.989Z,97.34
2019-02-22T08:57:12.125Z,97.37
2019-02-22T08:59:42.074Z,97.32
2019-02-22T09:02:12.056Z,97.32
2019-02-22T09:04:42.554Z,97.29
2019-02-22T09:07:12.515Z,97.22
2019-02-22T09:09:42.348Z,97.20
2019-02-22T09:12:12.608Z,97.15
2019-02-22T09:14:42.562Z,97.21
2019-02-22T09:17:13.407Z,97.18
2019-02-22T09:19:43.318Z,97.11
2019-02-22T09:22:22.357Z,97.10
2019-02-22T09:24:44.848Z,97.07
2019-02-22T09:27:14.805Z,97.03
2019-02-22T09:29:44.705Z,96.92
2019-02-22T09:32:14.599Z,96.89
2019-02-22T09:34:46.157Z,96.89
2019-02-22T09:37:16.099Z,96.90
2019-02-22T09:39:46.976Z,96.94
2019-02-22T09:42:17.123Z,96.96
2019-02-22T09:44:47.804Z,96.94
2019-02-22T09:47:17.788Z,97.02
2019-02-22T09:49:48.282Z,96.98
2019-02-22T09:52:18.166Z,97.00
2019-02-22T09:54:48.306Z,96.84
2019-02-22T09:57:19.103Z,96.75
2019-02-22T09:59:49.859Z,96.61
2019-02-22T10:02:19.867Z,96.46
2019-02-22T10:04:55.380Z,96.50
2019-02-22T10:07:22.711Z,96.53
2019-02-22T10:09:52.682Z,96.57
2019-02-22T10:12:22.840Z,96.54
2019-02-22T10:14:52.743Z,96.39
2019-02-22T10:17:22.707Z,95.85
2019-02-22T10:19:52.673Z,95.45
2019-02-22T10:22:22.994Z,95.19
2019-02-22T10:24:54.129Z,94.92
2019-02-22T10:27:25.011Z,94.63
2019-02-22T10:29:54.991Z,94.50
2019-02-22T10:32:24.871Z,94.47
2019-02-22T10:34:55.138Z,94.48
2019-02-22T10:37:25.096Z,94.48
2019-02-22T10:39:55.078Z,94.50
2019-02-22T10:42:25.291Z,94.48
2019-02-22T10:44:56.522Z,94.65
2019-02-22T10:47:26.399Z,94.85
2019-02-22T10:49:56.211Z,94.84
2019-02-22T10:52:26.483Z,94.75
2019-02-22T10:54:56.372Z,94.53
2019-02-22T10:57:26.597Z,94.36
2019-02-22T10:59:56.568Z,94.25
2019-02-22T11:02:26.513Z,93.73
2019-02-22T11:04:56.407Z,93.21
2019-02-22T11:07:26.411Z,92.93
2019-02-22T11:09:56.376Z,92.84
2019-02-22T11:12:26.295Z,92.60
2019-02-22T11:14:56.844Z,92.97
2019-02-22T11:17:26.807Z,91.97
2019-02-22T11:19:57.846Z,91.10
2019-02-22T11:22:27.736Z,90.79
2019-02-22T11:24:57.574Z,90.43
2019-02-22T11:27:27.537Z,89.99
2019-02-22T11:29:57.506Z,89.51
2019-02-22T11:32:27.678Z,89.19
2019-02-22T11:34:57.564Z,88.64
2019-02-22T11:37:27.536Z,88.10
2019-02-22T11:39:58.133Z,87.42
2019-02-22T11:42:28.070Z,87.00
2019-02-22T11:44:58.043Z,86.85
2019-02-22T11:47:28.004Z,86.90
2019-02-22T11:49:58.240Z,86.76
2019-02-22T11:52:28.203Z,86.71
2019-02-22T11:54:58.511Z,86.54
2019-02-22T11:57:29.541Z,86.51
2019-02-22T11:59:59.491Z,86.56
2019-02-22T12:02:30.886Z,86.24
2019-02-22T12:05:00.773Z,86.01
2019-02-22T12:07:30.730Z,85.68
2019-02-22T12:10:00.754Z,85.06
2019-02-22T12:12:32.285Z,84.17
2019-02-22T12:15:02.167Z,83.88
2019-02-22T12:17:33.809Z,83.46
2019-02-22T12:20:03.811Z,83.00
2019-02-22T12:22:34.174Z,82.68
2019-02-22T12:25:04.402Z,82.58
2019-02-22T12:27:34.269Z,81.94
2019-02-22T12:30:04.846Z,81.50
2019-02-22T12:32:34.799Z,81.27
2019-02-22T12:35:04.798Z,81.19
2019-02-22T12:37:34.776Z,80.39
2019-02-22T12:40:05.154Z,80.14
2019-02-22T12:42:35.067Z,79.75
2019-02-22T12:45:05.476Z,80.25
2019-02-22T12:47:36.908Z,78.51
2019-02-22T12:50:07.768Z,78.05
2019-02-22T12:52:37.714Z,77.87
2019-02-22T12:55:07.945Z,76.32
2019-02-22T12:57:37.940Z,76.17
2019-02-22T13:00:10.389Z,76.17
2019-02-22T13:02:40.334Z,75.73
2019-02-22T13:05:12.344Z,75.63
2019-02-22T13:07:42.377Z,75.63
2019-02-22T13:10:12.397Z,75.52
2019-02-22T13:12:42.363Z,75.14
2019-02-22T13:15:14.434Z,74.96
2019-02-22T13:17:44.193Z,75.05
2019-02-22T13:20:14.383Z,74.91
2019-02-22T13:22:44.751Z,74.49
2019-02-22T13:25:14.738Z,74.66
2019-02-22T13:27:44.607Z,74.28
2019-02-22T13:30:14.774Z,73.88
2019-02-22T13:32:45.039Z,74.23
2019-02-22T13:35:15.298Z,73.79
2019-02-22T13:37:45.245Z,72.54
2019-02-22T13:40:16.717Z,72.57
2019-02-22T13:42:46.657Z,72.61
2019-02-22T13:45:26.142Z,72.15
2019-02-22T13:47:48.265Z,72.09
2019-02-22T13:50:18.896Z,72.00
2019-02-22T13:52:48.834Z,71.85
2019-02-22T13:55:18.798Z,71.28
2019-02-22T13:57:48.741Z,71.24
2019-02-22T14:00:18.834Z,71.56
2019-02-22T14:02:48.815Z,71.14
2019-02-22T14:05:19.079Z,70.64
2019-02-22T14:07:55.788Z,69.10
2019-02-22T14:10:26.228Z,68.75
2019-02-22T14:12:56.167Z,68.29
2019-02-22T14:15:36.990Z,67.34
2019-02-22T14:17:57.813Z,66.59
2019-02-22T14:20:27.860Z,65.36
2019-02-22T14:22:57.998Z,63.63
2019-02-22T14:25:27.890Z,62.63
2019-02-22T14:27:57.860Z,63.01
2019-02-22T14:30:28.049Z,60.92
2019-02-22T14:32:57.915Z,60.80
2019-02-22T14:35:27.868Z,60.70
2019-02-22T14:37:58.183Z,61.44
2019-02-22T14:40:28.938Z,62.23
2019-02-22T14:42:58.893Z,62.82
2019-02-22T14:45:29.955Z,63.71
2019-02-22T14:47:59.905Z,64.15
2019-02-22T14:50:29.850Z,63.61
2019-02-22T14:52:59.802Z,65.23
2019-02-22T14:55:29.694Z,65.25
2019-02-22T14:58:00.310Z,65.04
2019-02-22T15:00:30.464Z,63.83
2019-02-22T15:03:01.038Z,62.80
2019-02-22T15:05:31.464Z,62.01
2019-02-22T15:08:01.415Z,60.58
2019-02-22T15:10:31.400Z,59.86
2019-02-22T15:13:01.370Z,59.16
2019-02-22T15:15:59.958Z,57.81
2019-02-22T15:18:20.847Z,57.33
2019-02-22T15:20:50.786Z,57.28
2019-02-22T15:23:21.109Z,57.84
2019-02-22T15:25:51.579Z,57.51
2019-02-22T15:28:21.866Z,56.82
2019-02-22T15:30:51.864Z,57.10
2019-02-22T15:33:22.035Z,57.47
2019-02-22T15:35:52.318Z,57.69
2019-02-22T15:38:22.976Z,57.78
2019-02-22T15:40:52.974Z,58.06
2019-02-22T15:43:22.864Z,59.18
2019-02-22T15:45:52.961Z,59.36
2019-02-22T15:48:22.911Z,59.92
2019-02-22T15:50:53.164Z,60.46
2019-02-22T15:53:23.172Z,60.54
2019-02-22T15:55:53.122Z,61.51
2019-02-22T15:58:23.871Z,62.12
2019-02-22T16:00:55.184Z,62.97
2019-02-22T16:03:27.119Z,63.14
2019-02-22T16:05:57.077Z,64.04
2019-02-22T16:08:27.049Z,65.14
2019-02-22T16:10:57.059Z,66.61
2019-02-22T16:13:27.199Z,66.32
2019-02-22T16:15:57.166Z,66.16
2019-02-22T16:18:27.338Z,66.10
2019-02-22T16:20:57.307Z,67.21
2019-02-22T16:23:27.210Z,67.26
2019-02-22T16:25:57.105Z,67.21
2019-02-22T16:28:26.970Z,66.64
2019-02-22T16:30:56.928Z,66.62
2019-02-22T16:33:26.946Z,66.70
2019-02-22T16:35:57.526Z,67.26
2019-02-22T16:38:27.676Z,66.81
2019-02-22T16:40:57.551Z,66.55
2019-02-22T16:43:27.496Z,66.38
2019-02-22T16:45:57.429Z,66.63
2019-02-22T16:48:27.287Z,67.05
2019-02-22T16:50:57.212Z,67.32
2019-02-22T16:53:27.073Z,67.40
2019-02-22T16:55:56.983Z,67.62
2019-02-22T16:58:27.587Z,67.91
2019-02-22T17:00:57.722Z,68.37
2019-02-22T17:03:27.546Z,68.94
2019-02-22T17:05:59.507Z,69.53
2019-02-22T17:08:29.717Z,69.99
2019-02-22T17:10:59.949Z,70.27
2019-02-22T17:13:30.987Z,70.87
2019-02-22T17:16:00.922Z,71.57
2019-02-22T17:18:31.085Z,71.81
2019-02-22T17:21:01.375Z,72.09
2019-02-22T17:23:31.274Z,72.30
2019-02-22T17:26:01.235Z,72.42
2019-02-22T17:28:31.171Z,72.77
2019-02-22T17:31:01.046Z,73.17
2019-02-22T17:33:30.949Z,73.25
2019-02-22T17:36:03.000Z,73.91
2019-02-22T17:38:32.966Z,74.27
2019-02-22T17:41:02.835Z,74.42
2019-02-22T17:43:32.771Z,74.66
2019-02-22T17:46:02.647Z,74.77
2019-02-22T17:48:32.899Z,74.94
2019-02-22T17:51:02.813Z,75.21
2019-02-22T17:53:32.693Z,75.40
2019-02-22T17:56:02.565Z,75.46
2019-02-22T17:58:33.714Z,75.77
2019-02-22T18:01:04.485Z,75.92
2019-02-22T18:03:35.620Z,76.21
2019-02-22T18:06:05.573Z,76.04
2019-02-22T18:08:35.443Z,76.02
2019-02-22T18:11:06.598Z,76.20
2019-02-22T18:13:36.582Z,76.50
2019-02-22T18:16:06.528Z,76.52
2019-02-22T18:18:36.605Z,76.75
2019-02-22T18:21:06.478Z,76.84
2019-02-22T18:23:37.123Z,76.79
2019-02-22T18:26:07.067Z,76.88
2019-02-22T18:28:37.056Z,76.96
2019-02-22T18:31:07.009Z,77.13
2019-02-22T18:33:36.957Z,77.23
2019-02-22T18:36:06.838Z,77.13
2019-02-22T18:38:37.091Z,76.91
2019-02-22T18:41:07.049Z,77.14
2019-02-22T18:43:37.030Z,77.40
2019-02-22T18:46:07.002Z,77.58
2019-02-22T18:48:36.882Z,77.90
2019-02-22T18:51:06.828Z,78.15
2019-02-22T18:53:36.818Z,78.28
2019-02-22T18:56:06.783Z,78.15
2019-02-22T18:58:36.702Z,78.39
2019-02-22T19:01:06.828Z,78.58
2019-02-22T19:03:36.717Z,78.51
2019-02-22T19:06:06.666Z,78.46
2019-02-22T19:08:37.188Z,78.35
2019-02-22T19:11:07.065Z,78.47
2019-02-22T19:13:36.933Z,78.48
2019-02-22T19:16:06.940Z,78.56
2019-02-22T19:18:37.117Z,78.81
2019-02-22T19:21:07.128Z,78.89
2019-02-22T19:23:37.006Z,78.90
2019-02-22T19:26:06.976Z,78.98
2019-02-22T19:28:36.928Z,78.98
2019-02-22T19:31:06.904Z,78.87
2019-02-22T19:33:37.197Z,78.83
2019-02-22T19:36:07.156Z,78.94
2019-02-22T19:38:37.135Z,78.96
2019-02-22T19:41:07.138Z,78.98
2019-02-22T19:43:38.350Z,79.05
2019-02-22T19:46:08.309Z,79.03
2019-02-22T19:48:38.240Z,79.19
2019-02-22T19:51:08.394Z,79.20
2019-02-22T19:53:38.741Z,79.10
2019-02-22T19:56:08.741Z,79.07
2019-02-22T19:58:38.546Z,79.10
2019-02-22T20:01:08.489Z,79.12
2019-02-22T20:03:38.564Z,79.13
2019-02-22T20:06:08.512Z,79.16
2019-02-22T20:08:38.324Z,79.34
2019-02-22T20:11:08.513Z,79.39
2019-02-22T20:13:38.853Z,79.31
2019-02-22T20:16:09.133Z,79.28
2019-02-22T20:18:39.397Z,79.32
2019-02-22T20:21:09.286Z,79.44
2019-02-22T20:23:40.843Z,79.40
2019-02-22T20:26:11.173Z,79.43
2019-02-22T20:28:41.207Z,79.56
2019-02-22T20:31:19.812Z,79.83
2019-02-22T20:33:43.195Z,79.87
2019-02-22T20:36:13.150Z,79.82
2019-02-22T20:38:44.246Z,80.09
2019-02-22T20:41:14.288Z,80.24
2019-02-22T20:43:44.340Z,80.23
2019-02-22T20:46:14.473Z,80.40
2019-02-22T20:48:44.773Z,80.56
2019-02-22T20:51:15.483Z,80.65
2019-02-22T20:53:45.951Z,80.54
2019-02-22T20:56:16.894Z,80.58
2019-02-22T20:58:48.582Z,80.63
2019-02-22T21:01:18.538Z,80.64
2019-02-22T21:03:48.712Z,80.66
2019-02-22T21:06:18.588Z,80.60
2019-02-22T21:08:49.113Z,80.56
2019-02-22T21:11:19.292Z,80.53
2019-02-22T21:13:50.309Z,80.51
2019-02-22T21:16:20.276Z,80.55
2019-02-22T21:18:50.145Z,80.64
2019-02-22T21:21:20.144Z,80.62
2019-02-22T21:23:52.051Z,80.67
2019-02-22T21:26:21.664Z,80.83
2019-02-22T21:28:51.606Z,80.98
2019-02-22T21:31:21.483Z,81.21
2019-02-22T21:33:51.467Z,81.27
2019-02-22T21:36:21.430Z,81.42
2019-02-22T21:38:51.730Z,81.47
2019-02-22T21:41:21.931Z,81.52
2019-02-22T21:43:51.843Z,81.54
2019-02-22T21:46:21.719Z,81.61
2019-02-22T21:48:51.595Z,81.71
2019-02-22T21:51:21.827Z,81.64
2019-02-22T21:53:51.711Z,81.68
2019-02-22T21:56:21.525Z,81.80
2019-02-22T21:58:51.481Z,81.82
2019-02-22T22:01:21.275Z,81.81
2019-02-22T22:03:51.513Z,81.66
2019-02-22T22:06:21.686Z,81.64
2019-02-22T22:08:51.493Z,81.37
2019-02-22T22:11:21.730Z,81.30
2019-02-22T22:13:53.661Z,81.22
2019-02-22T22:16:23.535Z,81.25
2019-02-22T22:18:53.422Z,81.09
2019-02-22T22:21:23.314Z,81.07
2019-02-22T22:23:53.176Z,81.05
2019-02-22T22:26:22.979Z,81.09
2019-02-22T22:28:53.178Z,81.24
2019-02-22T22:31:23.139Z,81.67
2019-02-22T22:33:53.085Z,81.80
2019-02-22T22:36:23.047Z,81.94
2019-02-22T22:38:54.932Z,82.28
2019-02-22T22:41:24.569Z,82.50
2019-02-22T22:43:54.707Z,82.64
2019-02-22T22:46:34.155Z,82.54
2019-02-22T22:48:56.617Z,82.48
2019-02-22T22:51:26.901Z,82.41
2019-02-22T22:53:56.703Z,82.39
2019-02-22T22:56:26.937Z,82.44
2019-02-22T22:58:56.894Z,82.41
2019-02-22T23:01:28.551Z,82.33
2019-02-22T23:04:00.044Z,82.21
2019-02-22T23:06:30.022Z,82.17
2019-02-22T23:08:59.885Z,82.07
2019-02-22T23:11:29.874Z,81.96
2019-02-22T23:13:59.840Z,81.82
2019-02-22T23:16:29.785Z,81.38
2019-02-22T23:19:02.084Z,81.16
2019-02-22T23:21:31.457Z,81.15
2019-02-22T23:24:01.249Z,81.13
2019-02-22T23:26:31.277Z,81.15
2019-02-22T23:29:01.908Z,81.36
2019-02-22T23:31:33.115Z,81.31
2019-02-22T23:34:03.166Z,81.16
2019-02-22T23:36:33.137Z,80.88
2019-02-22T23:39:03.919Z,80.90
2019-02-22T23:41:35.493Z,81.21
2019-02-22T23:44:05.778Z,81.03
2019-02-22T23:46:36.381Z,80.95
2019-02-22T23:49:13.137Z,81.11
2019-02-22T23:51:37.940Z,81.18
2019-02-22T23:54:07.799Z,81.04
2019-02-22T23:56:37.760Z,81.34
2019-02-22T23:59:08.005Z,81.29
